sensor_id;sensor_type;location;lat;lon;timestamp;temperature;humidity
17565;DHT22;62994;52.126;5.596;2024-01-07T00:00:45;3.90;99.90
17565;DHT22;62994;52.126;5.596;2024-01-07T00:03:12;3.90;99.90
17565;DHT22;62994;52.126;5.596;2024-01-07T00:05:39;3.90;99.90
17565;DHT22;62994;52.126;5.596;2024-01-07T00:08:18;3.90;99.90
17565;DHT22;62994;52.126;5.596;2024-01-07T00:10:46;3.90;99.90
17565;DHT22;62994;52.126;5.596;2024-01-07T00:13:15;3.90;99.90
17565;DHT22;62994;52.126;5.596;2024-01-07T00:15:42;3.90;99.90
17565;DHT22;62994;52.126;5.596;2024-01-07T00:18:09;3.90;99.90
17565;DHT22;62994;52.126;5.596;2024-01-07T00:20:36;3.90;99.90
17565;DHT22;62994;52.126;5.596;2024-01-07T00:23:05;3.90;99.90
17565;DHT22;62994;52.126;5.596;2024-01-07T00:25:32;3.90;99.90
17565;DHT22;62994;52.126;5.596;2024-01-07T00:27:59;3.80;99.90
17565;DHT22;62994;52.126;5.596;2024-01-07T00:30:28;3.80;99.90
17565;DHT22;62994;52.126;5.596;2024-01-07T00:32:57;3.80;99.90
17565;DHT22;62994;52.126;5.596;2024-01-07T00:35:32;3.80;99.90
17565;DHT22;62994;52.126;5.596;2024-01-07T00:37:59;3.80;99.90
17565;DHT22;62994;52.126;5.596;2024-01-07T00:40:28;3.80;99.90
17565;DHT22;62994;52.126;5.596;2024-01-07T00:43:01;3.80;99.90
17565;DHT22;62994;52.126;5.596;2024-01-07T00:45:29;3.80;99.90
17565;DHT22;62994;52.126;5.596;2024-01-07T00:47:58;3.70;99.90
17565;DHT22;62994;52.126;5.596;2024-01-07T00:50:26;3.70;99.90
17565;DHT22;62994;52.126;5.596;2024-01-07T00:52:53;3.70;99.90
17565;DHT22;62994;52.126;5.596;2024-01-07T00:55:20;3.70;99.90
17565;DHT22;62994;52.126;5.596;2024-01-07T00:57:49;3.70;99.90
17565;DHT22;62994;52.126;5.596;2024-01-07T01:00:18;3.70;99.90
17565;DHT22;62994;52.126;5.596;2024-01-07T01:02:46;3.60;99.90
17565;DHT22;62994;52.126;5.596;2024-01-07T01:05:15;3.60;99.90
17565;DHT22;62994;52.126;5.596;2024-01-07T01:07:42;3.70;99.90
17565;DHT22;62994;52.126;5.596;2024-01-07T01:10:13;3.70;99.90
17565;DHT22;62994;52.126;5.596;2024-01-07T01:12:42;3.60;99.90
17565;DHT22;62994;52.126;5.596;2024-01-07T01:15:13;3.60;99.90
17565;DHT22;62994;52.126;5.596;2024-01-07T01:17:42;3.70;99.90
17565;DHT22;62994;52.126;5.596;2024-01-07T01:20:11;3.60;99.90
17565;DHT22;62994;52.126;5.596;2024-01-07T01:22:44;3.50;99.90
17565;DHT22;62994;52.126;5.596;2024-01-07T01:25:11;3.60;99.90
17565;DHT22;62994;52.126;5.596;2024-01-07T01:27:38;3.60;99.90
17565;DHT22;62994;52.126;5.596;2024-01-07T01:30:06;3.50;99.90
17565;DHT22;62994;52.126;5.596;2024-01-07T01:32:34;3.50;99.90
17565;DHT22;62994;52.126;5.596;2024-01-07T01:35:01;3.50;99.90
17565;DHT22;62994;52.126;5.596;2024-01-07T01:37:29;3.50;99.90
17565;DHT22;62994;52.126;5.596;2024-01-07T01:39:58;3.50;99.90
17565;DHT22;62994;52.126;5.596;2024-01-07T01:42:30;3.50;99.90
17565;DHT22;62994;52.126;5.596;2024-01-07T01:44:57;3.40;99.90
17565;DHT22;62994;52.126;5.596;2024-01-07T01:47:27;3.40;99.90
17565;DHT22;62994;52.126;5.596;2024-01-07T01:49:54;3.40;99.90
17565;DHT22;62994;52.126;5.596;2024-01-07T01:52:25;3.40;99.90
17565;DHT22;62994;52.126;5.596;2024-01-07T01:54:54;3.40;99.90
17565;DHT22;62994;52.126;5.596;2024-01-07T01:57:22;3.40;99.90
17565;DHT22;62994;52.126;5.596;2024-01-07T01:59:55;3.40;99.90
17565;DHT22;62994;52.126;5.596;2024-01-07T02:02:27;3.50;99.90
17565;DHT22;62994;52.126;5.596;2024-01-07T02:04:58;3.40;99.90
17565;DHT22;62994;52.126;5.596;2024-01-07T02:07:25;3.50;99.90
17565;DHT22;62994;52.126;5.596;2024-01-07T02:09:54;3.40;99.90
17565;DHT22;62994;52.126;5.596;2024-01-07T02:12:21;3.40;99.90
17565;DHT22;62994;52.126;5.596;2024-01-07T02:14:48;3.40;99.90
17565;DHT22;62994;52.126;5.596;2024-01-07T02:17:21;3.30;99.90
17565;DHT22;62994;52.126;5.596;2024-01-07T02:19:48;3.30;99.90
17565;DHT22;62994;52.126;5.596;2024-01-07T02:22:19;3.30;99.90
17565;DHT22;62994;52.126;5.596;2024-01-07T02:24:47;3.30;99.90
17565;DHT22;62994;52.126;5.596;2024-01-07T02:27:19;3.30;99.90
17565;DHT22;62994;52.126;5.596;2024-01-07T02:29:46;3.30;99.90
17565;DHT22;62994;52.126;5.596;2024-01-07T02:32:13;3.30;99.90
17565;DHT22;62994;52.126;5.596;2024-01-07T02:34:40;3.30;99.90
17565;DHT22;62994;52.126;5.596;2024-01-07T02:37:08;3.20;99.90
17565;DHT22;62994;52.126;5.596;2024-01-07T02:39:40;3.30;99.90
17565;DHT22;62994;52.126;5.596;2024-01-07T02:42:08;3.30;99.90
17565;DHT22;62994;52.126;5.596;2024-01-07T02:44:35;3.30;99.90
17565;DHT22;62994;52.126;5.596;2024-01-07T02:47:07;3.30;99.90
17565;DHT22;62994;52.126;5.596;2024-01-07T02:49:38;3.40;99.90
17565;DHT22;62994;52.126;5.596;2024-01-07T02:52:05;3.40;99.90
17565;DHT22;62994;52.126;5.596;2024-01-07T02:54:36;3.40;99.90
17565;DHT22;62994;52.126;5.596;2024-01-07T02:57:05;3.40;99.90
17565;DHT22;62994;52.126;5.596;2024-01-07T02:59:54;3.40;99.90
17565;DHT22;62994;52.126;5.596;2024-01-07T03:02:27;3.50;99.90
17565;DHT22;62994;52.126;5.596;2024-01-07T03:07:17;3.40;99.90
17565;DHT22;62994;52.126;5.596;2024-01-07T03:09:18;3.30;99.90
17565;DHT22;62994;52.126;5.596;2024-01-07T03:11:44;3.70;99.90
17565;DHT22;62994;52.126;5.596;2024-01-07T03:17:39;3.30;99.90
17565;DHT22;62994;52.126;5.596;2024-01-07T03:20:13;3.20;99.90
17565;DHT22;62994;52.126;5.596;2024-01-07T03:23:06;3.20;99.90
17565;DHT22;62994;52.126;5.596;2024-01-07T03:25:52;3.20;99.90
17565;DHT22;62994;52.126;5.596;2024-01-07T03:28:28;3.30;99.90
17565;DHT22;62994;52.126;5.596;2024-01-07T03:31:14;3.20;99.90
17565;DHT22;62994;52.126;5.596;2024-01-07T03:37:24;3.20;99.90
17565;DHT22;62994;52.126;5.596;2024-01-07T03:40:19;3.20;99.90
17565;DHT22;62994;52.126;5.596;2024-01-07T03:43:47;3.10;99.90
17565;DHT22;62994;52.126;5.596;2024-01-07T03:46:56;3.00;99.90
17565;DHT22;62994;52.126;5.596;2024-01-07T03:49:33;3.10;99.90
17565;DHT22;62994;52.126;5.596;2024-01-07T03:52:31;3.00;99.90
17565;DHT22;62994;52.126;5.596;2024-01-07T03:55:19;3.10;99.90
17565;DHT22;62994;52.126;5.596;2024-01-07T04:02:25;2.80;99.90
17565;DHT22;62994;52.126;5.596;2024-01-07T04:04:01;2.80;99.90
17565;DHT22;62994;52.126;5.596;2024-01-07T04:06:46;2.70;99.90
17565;DHT22;62994;52.126;5.596;2024-01-07T04:09:28;2.80;99.90
17565;DHT22;62994;52.126;5.596;2024-01-07T04:12:22;2.80;99.90
17565;DHT22;62994;52.126;5.596;2024-01-07T04:14:58;2.80;99.90
17565;DHT22;62994;52.126;5.596;2024-01-07T04:17:29;2.80;99.90
17565;DHT22;62994;52.126;5.596;2024-01-07T04:20:16;2.90;99.90
17565;DHT22;62994;52.126;5.596;2024-01-07T04:23:19;2.90;99.90
17565;DHT22;62994;52.126;5.596;2024-01-07T04:25:51;3.00;99.90
17565;DHT22;62994;52.126;5.596;2024-01-07T04:29:23;3.00;99.90
17565;DHT22;62994;52.126;5.596;2024-01-07T04:33:41;3.00;99.90
17565;DHT22;62994;52.126;5.596;2024-01-07T04:34:54;3.00;99.90
17565;DHT22;62994;52.126;5.596;2024-01-07T04:37:25;2.90;99.90
17565;DHT22;62994;52.126;5.596;2024-01-07T04:40:00;2.90;99.90
17565;DHT22;62994;52.126;5.596;2024-01-07T04:43:19;2.90;99.90
17565;DHT22;62994;52.126;5.596;2024-01-07T04:46:06;3.00;99.90
17565;DHT22;62994;52.126;5.596;2024-01-07T04:48:59;3.40;99.90
17565;DHT22;62994;52.126;5.596;2024-01-07T04:51:54;2.90;99.90
17565;DHT22;62994;52.126;5.596;2024-01-07T04:54:42;2.90;99.90
17565;DHT22;62994;52.126;5.596;2024-01-07T04:57:51;2.90;99.90
17565;DHT22;62994;52.126;5.596;2024-01-07T05:00:39;2.90;99.90
17565;DHT22;62994;52.126;5.596;2024-01-07T05:03:21;3.30;99.90
17565;DHT22;62994;52.126;5.596;2024-01-07T05:06:55;2.90;99.90
17565;DHT22;62994;52.126;5.596;2024-01-07T05:09:37;2.90;99.90
17565;DHT22;62994;52.126;5.596;2024-01-07T05:12:16;3.10;99.90
17565;DHT22;62994;52.126;5.596;2024-01-07T05:14:53;2.90;99.90
17565;DHT22;62994;52.126;5.596;2024-01-07T05:17:41;2.90;99.90
17565;DHT22;62994;52.126;5.596;2024-01-07T05:20:23;2.80;99.90
17565;DHT22;62994;52.126;5.596;2024-01-07T05:23:18;2.90;99.90
17565;DHT22;62994;52.126;5.596;2024-01-07T05:26:23;3.00;99.90
17565;DHT22;62994;52.126;5.596;2024-01-07T05:29:13;2.60;99.90
17565;DHT22;62994;52.126;5.596;2024-01-07T05:34:59;3.00;99.90
17565;DHT22;62994;52.126;5.596;2024-01-07T05:37:33;3.00;99.90
17565;DHT22;62994;52.126;5.596;2024-01-07T05:40:38;2.90;99.90
17565;DHT22;62994;52.126;5.596;2024-01-07T05:44:02;3.10;99.90
17565;DHT22;62994;52.126;5.596;2024-01-07T05:46:46;3.00;99.90
17565;DHT22;62994;52.126;5.596;2024-01-07T05:49:38;3.10;99.90
17565;DHT22;62994;52.126;5.596;2024-01-07T05:53:31;3.00;99.90
17565;DHT22;62994;52.126;5.596;2024-01-07T05:55:29;3.10;99.90
17565;DHT22;62994;52.126;5.596;2024-01-07T05:58:32;3.30;99.90
17565;DHT22;62994;52.126;5.596;2024-01-07T06:04:45;3.10;99.90
17565;DHT22;62994;52.126;5.596;2024-01-07T06:07:32;2.90;99.90
17565;DHT22;62994;52.126;5.596;2024-01-07T06:10:43;3.00;99.90
17565;DHT22;62994;52.126;5.596;2024-01-07T06:13:52;2.70;99.90
17565;DHT22;62994;52.126;5.596;2024-01-07T06:16:47;3.00;99.90
17565;DHT22;62994;52.126;5.596;2024-01-07T06:19:50;3.10;99.90
17565;DHT22;62994;52.126;5.596;2024-01-07T06:22:23;3.00;99.90
17565;DHT22;62994;52.126;5.596;2024-01-07T06:25:17;2.90;99.90
17565;DHT22;62994;52.126;5.596;2024-01-07T06:28:05;3.00;99.90
17565;DHT22;62994;52.126;5.596;2024-01-07T06:37:16;3.10;99.90
17565;DHT22;62994;52.126;5.596;2024-01-07T06:43:31;2.90;99.90
17565;DHT22;62994;52.126;5.596;2024-01-07T06:46:20;2.80;99.90
17565;DHT22;62994;52.126;5.596;2024-01-07T06:49:13;2.80;99.90
17565;DHT22;62994;52.126;5.596;2024-01-07T06:51:55;2.80;99.90
17565;DHT22;62994;52.126;5.596;2024-01-07T06:58:41;2.70;99.90
17565;DHT22;62994;52.126;5.596;2024-01-07T07:04:53;2.40;99.90
17565;DHT22;62994;52.126;5.596;2024-01-07T07:07:32;2.70;99.90
17565;DHT22;62994;52.126;5.596;2024-01-07T07:10:10;2.60;99.90
17565;DHT22;62994;52.126;5.596;2024-01-07T07:12:41;2.70;99.90
17565;DHT22;62994;52.126;5.596;2024-01-07T07:16:19;2.60;99.90
17565;DHT22;62994;52.126;5.596;2024-01-07T07:18:53;2.60;99.90
17565;DHT22;62994;52.126;5.596;2024-01-07T07:32:12;2.50;99.90
17565;DHT22;62994;52.126;5.596;2024-01-07T07:35:27;2.50;99.90
17565;DHT22;62994;52.126;5.596;2024-01-07T07:38:32;2.50;99.90
17565;DHT22;62994;52.126;5.596;2024-01-07T07:41:21;2.50;99.90
17565;DHT22;62994;52.126;5.596;2024-01-07T07:44:07;2.50;99.90
17565;DHT22;62994;52.126;5.596;2024-01-07T07:57:02;2.50;99.90
17565;DHT22;62994;52.126;5.596;2024-01-07T08:00:16;2.50;99.90
17565;DHT22;62994;52.126;5.596;2024-01-07T08:04:37;2.60;99.90
17565;DHT22;62994;52.126;5.596;2024-01-07T08:06:51;2.50;99.90
17565;DHT22;62994;52.126;5.596;2024-01-07T08:16:31;2.40;99.90
17565;DHT22;62994;52.126;5.596;2024-01-07T08:19:34;2.30;99.90
17565;DHT22;62994;52.126;5.596;2024-01-07T08:22:35;2.20;99.90
17565;DHT22;62994;52.126;5.596;2024-01-07T08:35:08;1.90;99.90
17565;DHT22;62994;52.126;5.596;2024-01-07T08:37:58;2.30;99.90
17565;DHT22;62994;52.126;5.596;2024-01-07T08:40:57;2.30;99.90
17565;DHT22;62994;52.126;5.596;2024-01-07T08:43:56;2.30;99.90
17565;DHT22;62994;52.126;5.596;2024-01-07T08:46:57;2.60;99.90
17565;DHT22;62994;52.126;5.596;2024-01-07T08:50:12;2.20;99.90
17565;DHT22;62994;52.126;5.596;2024-01-07T09:02:59;2.00;99.90
17565;DHT22;62994;52.126;5.596;2024-01-07T09:05:35;2.20;99.90
17565;DHT22;62994;52.126;5.596;2024-01-07T09:08:27;2.20;99.90
17565;DHT22;62994;52.126;5.596;2024-01-07T09:11:13;2.70;99.90
17565;DHT22;62994;52.126;5.596;2024-01-07T09:14:08;2.10;99.90
17565;DHT22;62994;52.126;5.596;2024-01-07T09:16:49;2.40;99.90
17565;DHT22;62994;52.126;5.596;2024-01-07T09:19:35;2.30;99.90
17565;DHT22;62994;52.126;5.596;2024-01-07T09:22:21;2.20;99.90
17565;DHT22;62994;52.126;5.596;2024-01-07T09:28:24;2.20;99.90
17565;DHT22;62994;52.126;5.596;2024-01-07T09:31:05;2.20;99.90
17565;DHT22;62994;52.126;5.596;2024-01-07T09:33:58;2.30;99.90
17565;DHT22;62994;52.126;5.596;2024-01-07T09:36:44;2.30;99.90
17565;DHT22;62994;52.126;5.596;2024-01-07T09:42:34;2.30;99.90
17565;DHT22;62994;52.126;5.596;2024-01-07T09:45:09;2.30;99.90
17565;DHT22;62994;52.126;5.596;2024-01-07T09:47:54;2.20;99.90
17565;DHT22;62994;52.126;5.596;2024-01-07T09:54:00;2.20;99.90
17565;DHT22;62994;52.126;5.596;2024-01-07T09:59:53;2.30;99.90
17565;DHT22;62994;52.126;5.596;2024-01-07T10:02:44;2.20;99.90
17565;DHT22;62994;52.126;5.596;2024-01-07T10:08:49;2.40;99.90
17565;DHT22;62994;52.126;5.596;2024-01-07T10:11:56;2.20;99.90
17565;DHT22;62994;52.126;5.596;2024-01-07T10:18:18;2.10;99.90
17565;DHT22;62994;52.126;5.596;2024-01-07T10:21:34;2.10;99.90
17565;DHT22;62994;52.126;5.596;2024-01-07T10:24:13;2.10;99.90
17565;DHT22;62994;52.126;5.596;2024-01-07T10:26:56;2.10;99.90
17565;DHT22;62994;52.126;5.596;2024-01-07T10:30:53;2.10;99.90
17565;DHT22;62994;52.126;5.596;2024-01-07T10:33:04;2.10;99.90
17565;DHT22;62994;52.126;5.596;2024-01-07T10:35:57;2.20;99.90
17565;DHT22;62994;52.126;5.596;2024-01-07T10:38:46;2.40;99.90
17565;DHT22;62994;52.126;5.596;2024-01-07T10:41:43;2.10;99.90
17565;DHT22;62994;52.126;5.596;2024-01-07T10:44:33;2.00;99.90
17565;DHT22;62994;52.126;5.596;2024-01-07T10:47:29;2.00;99.90
17565;DHT22;62994;52.126;5.596;2024-01-07T10:50:27;2.00;99.90
17565;DHT22;62994;52.126;5.596;2024-01-07T10:54:22;2.10;99.90
17565;DHT22;62994;52.126;5.596;2024-01-07T10:56:12;1.90;99.90
17565;DHT22;62994;52.126;5.596;2024-01-07T10:59:11;2.60;99.90
17565;DHT22;62994;52.126;5.596;2024-01-07T11:02:14;2.20;99.90
17565;DHT22;62994;52.126;5.596;2024-01-07T11:05:20;2.00;99.90
17565;DHT22;62994;52.126;5.596;2024-01-07T11:08:26;2.10;99.90
17565;DHT22;62994;52.126;5.596;2024-01-07T11:11:21;2.30;99.90
17565;DHT22;62994;52.126;5.596;2024-01-07T11:14:37;2.00;99.90
17565;DHT22;62994;52.126;5.596;2024-01-07T11:17:42;2.10;99.90
17565;DHT22;62994;52.126;5.596;2024-01-07T11:21:07;2.50;99.90
17565;DHT22;62994;52.126;5.596;2024-01-07T11:23:51;2.30;99.90
17565;DHT22;62994;52.126;5.596;2024-01-07T11:26:53;2.10;99.90
17565;DHT22;62994;52.126;5.596;2024-01-07T11:32:59;2.20;99.90
17565;DHT22;62994;52.126;5.596;2024-01-07T11:38:56;2.20;99.90
17565;DHT22;62994;52.126;5.596;2024-01-07T11:41:44;2.30;99.90
17565;DHT22;62994;52.126;5.596;2024-01-07T11:44:44;2.30;99.90
17565;DHT22;62994;52.126;5.596;2024-01-07T11:47:57;2.30;99.90
17565;DHT22;62994;52.126;5.596;2024-01-07T11:50:54;2.30;99.90
17565;DHT22;62994;52.126;5.596;2024-01-07T11:57:30;2.30;99.90
17565;DHT22;62994;52.126;5.596;2024-01-07T12:10:33;2.30;99.90
17565;DHT22;62994;52.126;5.596;2024-01-07T12:13:40;2.30;99.90
17565;DHT22;62994;52.126;5.596;2024-01-07T12:16:42;2.30;99.90
17565;DHT22;62994;52.126;5.596;2024-01-07T12:33:17;2.40;99.90
17565;DHT22;62994;52.126;5.596;2024-01-07T12:36:39;2.50;99.90
17565;DHT22;62994;52.126;5.596;2024-01-07T12:39:27;2.50;99.90
17565;DHT22;62994;52.126;5.596;2024-01-07T12:42:32;2.60;99.90
17565;DHT22;62994;52.126;5.596;2024-01-07T12:45:40;2.60;99.90
17565;DHT22;62994;52.126;5.596;2024-01-07T12:49:03;2.70;99.90
17565;DHT22;62994;52.126;5.596;2024-01-07T12:51:46;2.70;99.90
17565;DHT22;62994;52.126;5.596;2024-01-07T12:54:53;2.80;99.90
17565;DHT22;62994;52.126;5.596;2024-01-07T13:05:10;2.80;99.90
17565;DHT22;62994;52.126;5.596;2024-01-07T13:07:55;2.70;99.90
17565;DHT22;62994;52.126;5.596;2024-01-07T13:12:04;2.70;99.90
17565;DHT22;62994;52.126;5.596;2024-01-07T13:14:04;2.70;99.90
17565;DHT22;62994;52.126;5.596;2024-01-07T13:16:52;2.50;99.90
17565;DHT22;62994;52.126;5.596;2024-01-07T13:26:21;2.60;99.90
17565;DHT22;62994;52.126;5.596;2024-01-07T13:29:13;2.70;99.90
17565;DHT22;62994;52.126;5.596;2024-01-07T13:35:20;2.70;99.90
17565;DHT22;62994;52.126;5.596;2024-01-07T13:38:13;2.80;99.90
17565;DHT22;62994;52.126;5.596;2024-01-07T13:44:32;2.60;99.90
17565;DHT22;62994;52.126;5.596;2024-01-07T13:47:37;2.60;99.90
17565;DHT22;62994;52.126;5.596;2024-01-07T13:53:46;2.50;99.90
17565;DHT22;62994;52.126;5.596;2024-01-07T13:59:59;2.60;99.90
17565;DHT22;62994;52.126;5.596;2024-01-07T14:06:12;2.50;99.90
17565;DHT22;62994;52.126;5.596;2024-01-07T14:09:18;2.50;99.90
17565;DHT22;62994;52.126;5.596;2024-01-07T14:11:54;2.50;99.90
17565;DHT22;62994;52.126;5.596;2024-01-07T14:14:55;2.70;99.90
17565;DHT22;62994;52.126;5.596;2024-01-07T14:20:53;2.50;99.90
17565;DHT22;62994;52.126;5.596;2024-01-07T14:24:07;2.50;99.90
17565;DHT22;62994;52.126;5.596;2024-01-07T14:27:25;2.30;99.90
17565;DHT22;62994;52.126;5.596;2024-01-07T14:33:19;2.40;99.90
17565;DHT22;62994;52.126;5.596;2024-01-07T14:36:03;2.30;99.90
17565;DHT22;62994;52.126;5.596;2024-01-07T14:39:07;2.30;99.90
17565;DHT22;62994;52.126;5.596;2024-01-07T14:42:10;2.30;99.90
17565;DHT22;62994;52.126;5.596;2024-01-07T14:45:10;2.20;99.90
17565;DHT22;62994;52.126;5.596;2024-01-07T14:48:02;2.30;99.90
17565;DHT22;62994;52.126;5.596;2024-01-07T14:52:45;2.50;99.90
17565;DHT22;62994;52.126;5.596;2024-01-07T14:54:12;2.30;99.90
17565;DHT22;62994;52.126;5.596;2024-01-07T14:57:09;2.30;99.90
17565;DHT22;62994;52.126;5.596;2024-01-07T15:00:01;2.30;99.90
17565;DHT22;62994;52.126;5.596;2024-01-07T15:02:35;2.20;99.90
17565;DHT22;62994;52.126;5.596;2024-01-07T15:07:28;2.20;99.90
17565;DHT22;62994;52.126;5.596;2024-01-07T15:18:57;2.30;99.90
17565;DHT22;62994;52.126;5.596;2024-01-07T15:28:29;2.30;99.90
17565;DHT22;62994;52.126;5.596;2024-01-07T15:34:55;2.30;99.90
17565;DHT22;62994;52.126;5.596;2024-01-07T15:37:48;2.40;99.90
17565;DHT22;62994;52.126;5.596;2024-01-07T15:43:31;2.30;99.90
17565;DHT22;62994;52.126;5.596;2024-01-07T15:46:45;2.30;99.90
17565;DHT22;62994;52.126;5.596;2024-01-07T15:49:20;2.30;99.90
17565;DHT22;62994;52.126;5.596;2024-01-07T15:52:10;2.10;99.90
17565;DHT22;62994;52.126;5.596;2024-01-07T15:58:07;2.20;99.90
17565;DHT22;62994;52.126;5.596;2024-01-07T16:01:21;2.10;99.90
17565;DHT22;62994;52.126;5.596;2024-01-07T16:04:09;2.20;99.90
17565;DHT22;62994;52.126;5.596;2024-01-07T16:09:46;2.20;99.90
17565;DHT22;62994;52.126;5.596;2024-01-07T16:19:18;2.30;99.90
17565;DHT22;62994;52.126;5.596;2024-01-07T16:32:49;2.30;99.90
17565;DHT22;62994;52.126;5.596;2024-01-07T16:36:14;2.30;99.90
17565;DHT22;62994;52.126;5.596;2024-01-07T16:38:11;2.20;99.90
17565;DHT22;62994;52.126;5.596;2024-01-07T16:44:23;2.10;99.90
17565;DHT22;62994;52.126;5.596;2024-01-07T16:47:29;2.10;99.90
17565;DHT22;62994;52.126;5.596;2024-01-07T16:51:00;2.00;99.90
17565;DHT22;62994;52.126;5.596;2024-01-07T16:53:50;2.10;99.90
17565;DHT22;62994;52.126;5.596;2024-01-07T16:57:00;2.30;99.90
17565;DHT22;62994;52.126;5.596;2024-01-07T17:00:08;2.70;99.90
17565;DHT22;62994;52.126;5.596;2024-01-07T17:05:59;2.40;99.90
17565;DHT22;62994;52.126;5.596;2024-01-07T17:08:55;2.30;99.90
17565;DHT22;62994;52.126;5.596;2024-01-07T17:11:28;2.20;99.90
17565;DHT22;62994;52.126;5.596;2024-01-07T17:14:21;2.10;99.90
17565;DHT22;62994;52.126;5.596;2024-01-07T17:16:51;2.10;99.90
17565;DHT22;62994;52.126;5.596;2024-01-07T17:20:13;2.10;99.90
17565;DHT22;62994;52.126;5.596;2024-01-07T17:22:54;2.10;99.90
17565;DHT22;62994;52.126;5.596;2024-01-07T17:25:37;2.10;99.90
17565;DHT22;62994;52.126;5.596;2024-01-07T17:28:14;2.00;99.90
17565;DHT22;62994;52.126;5.596;2024-01-07T17:31:09;2.00;99.90
17565;DHT22;62994;52.126;5.596;2024-01-07T17:36:52;1.90;99.90
17565;DHT22;62994;52.126;5.596;2024-01-07T17:39:35;1.90;99.90
17565;DHT22;62994;52.126;5.596;2024-01-07T17:42:18;1.90;99.90
17565;DHT22;62994;52.126;5.596;2024-01-07T17:45:00;1.90;99.90
17565;DHT22;62994;52.126;5.596;2024-01-07T17:47:52;1.80;99.90
17565;DHT22;62994;52.126;5.596;2024-01-07T17:50:35;1.80;99.90
17565;DHT22;62994;52.126;5.596;2024-01-07T17:53:15;1.80;99.90
17565;DHT22;62994;52.126;5.596;2024-01-07T17:56:17;1.80;99.90
17565;DHT22;62994;52.126;5.596;2024-01-07T17:58:56;1.60;99.90
17565;DHT22;62994;52.126;5.596;2024-01-07T18:01:35;1.80;99.90
17565;DHT22;62994;52.126;5.596;2024-01-07T18:04:14;2.10;99.90
17565;DHT22;62994;52.126;5.596;2024-01-07T18:07:05;1.80;99.90
17565;DHT22;62994;52.126;5.596;2024-01-07T18:09:43;1.70;99.90
17565;DHT22;62994;52.126;5.596;2024-01-07T18:15:44;1.50;99.90
17565;DHT22;62994;52.126;5.596;2024-01-07T18:18:53;1.60;99.90
17565;DHT22;62994;52.126;5.596;2024-01-07T18:21:29;1.60;99.90
17565;DHT22;62994;52.126;5.596;2024-01-07T18:26:05;1.60;99.90
17565;DHT22;62994;52.126;5.596;2024-01-07T18:27:51;1.50;99.90
17565;DHT22;62994;52.126;5.596;2024-01-07T18:30:18;1.60;99.90
17565;DHT22;62994;52.126;5.596;2024-01-07T18:32:50;1.60;99.90
17565;DHT22;62994;52.126;5.596;2024-01-07T18:35:49;1.80;99.90
17565;DHT22;62994;52.126;5.596;2024-01-07T18:38:39;1.50;99.90
17565;DHT22;62994;52.126;5.596;2024-01-07T18:41:16;1.50;99.90
17565;DHT22;62994;52.126;5.596;2024-01-07T18:43:59;1.40;99.90
17565;DHT22;62994;52.126;5.596;2024-01-07T18:46:34;1.50;99.90
17565;DHT22;62994;52.126;5.596;2024-01-07T18:53:06;1.50;99.90
17565;DHT22;62994;52.126;5.596;2024-01-07T18:56:08;1.50;99.90
17565;DHT22;62994;52.126;5.596;2024-01-07T18:58:43;1.40;99.90
17565;DHT22;62994;52.126;5.596;2024-01-07T19:01:37;1.30;99.90
17565;DHT22;62994;52.126;5.596;2024-01-07T19:04:18;1.70;99.90
17565;DHT22;62994;52.126;5.596;2024-01-07T19:06:55;1.20;99.90
17565;DHT22;62994;52.126;5.596;2024-01-07T19:09:31;1.30;99.90
17565;DHT22;62994;52.126;5.596;2024-01-07T19:12:12;1.40;99.90
17565;DHT22;62994;52.126;5.596;2024-01-07T19:14:43;1.40;99.90
17565;DHT22;62994;52.126;5.596;2024-01-07T19:17:29;1.40;99.90
17565;DHT22;62994;52.126;5.596;2024-01-07T19:20:11;1.40;99.90
17565;DHT22;62994;52.126;5.596;2024-01-07T19:22:47;1.40;99.90
17565;DHT22;62994;52.126;5.596;2024-01-07T19:25:30;1.70;99.90
17565;DHT22;62994;52.126;5.596;2024-01-07T19:28:40;1.40;99.90
17565;DHT22;62994;52.126;5.596;2024-01-07T19:31:40;1.40;99.90
17565;DHT22;62994;52.126;5.596;2024-01-07T19:34:45;1.30;99.90
17565;DHT22;62994;52.126;5.596;2024-01-07T19:41:30;1.30;99.90
17565;DHT22;62994;52.126;5.596;2024-01-07T19:44:01;1.30;99.90
17565;DHT22;62994;52.126;5.596;2024-01-07T19:47:12;1.30;99.90
17565;DHT22;62994;52.126;5.596;2024-01-07T19:49:55;1.20;99.90
17565;DHT22;62994;52.126;5.596;2024-01-07T19:59:31;1.10;99.90
17565;DHT22;62994;52.126;5.596;2024-01-07T20:02:20;1.10;99.90
17565;DHT22;62994;52.126;5.596;2024-01-07T20:05:02;1.00;99.90
17565;DHT22;62994;52.126;5.596;2024-01-07T20:07:55;1.00;99.90
17565;DHT22;62994;52.126;5.596;2024-01-07T20:14:12;1.50;99.90
17565;DHT22;62994;52.126;5.596;2024-01-07T20:16:55;1.00;99.90
17565;DHT22;62994;52.126;5.596;2024-01-07T20:19:43;1.00;99.90
17565;DHT22;62994;52.126;5.596;2024-01-07T20:22:47;1.00;99.90
17565;DHT22;62994;52.126;5.596;2024-01-07T20:25:25;1.00;99.90
17565;DHT22;62994;52.126;5.596;2024-01-07T20:28:21;1.00;99.90
17565;DHT22;62994;52.126;5.596;2024-01-07T20:32:59;1.00;99.90
17565;DHT22;62994;52.126;5.596;2024-01-07T20:37:09;0.90;99.90
17565;DHT22;62994;52.126;5.596;2024-01-07T20:39:41;0.90;99.90
17565;DHT22;62994;52.126;5.596;2024-01-07T20:42:50;0.80;99.90
17565;DHT22;62994;52.126;5.596;2024-01-07T20:46:14;0.80;99.90
17565;DHT22;62994;52.126;5.596;2024-01-07T20:48:53;0.80;99.90
17565;DHT22;62994;52.126;5.596;2024-01-07T20:52:07;0.70;99.90
17565;DHT22;62994;52.126;5.596;2024-01-07T20:54:56;0.70;99.90
17565;DHT22;62994;52.126;5.596;2024-01-07T21:01:15;0.60;99.90
17565;DHT22;62994;52.126;5.596;2024-01-07T21:04:18;0.60;99.90
17565;DHT22;62994;52.126;5.596;2024-01-07T21:07:14;0.70;99.90
17565;DHT22;62994;52.126;5.596;2024-01-07T21:13:34;0.50;99.90
17565;DHT22;62994;52.126;5.596;2024-01-07T21:16:54;0.50;99.90
17565;DHT22;62994;52.126;5.596;2024-01-07T21:20:29;0.50;99.90
17565;DHT22;62994;52.126;5.596;2024-01-07T21:22:44;0.50;99.90
17565;DHT22;62994;52.126;5.596;2024-01-07T21:25:35;0.40;99.90
17565;DHT22;62994;52.126;5.596;2024-01-07T21:31:33;0.00;99.90
17565;DHT22;62994;52.126;5.596;2024-01-07T21:37:39;1.00;99.90
17565;DHT22;62994;52.126;5.596;2024-01-07T21:40:23;0.20;99.90
17565;DHT22;62994;52.126;5.596;2024-01-07T21:43:02;0.20;99.90
17565;DHT22;62994;52.126;5.596;2024-01-07T21:45:57;0.20;99.90
17565;DHT22;62994;52.126;5.596;2024-01-07T21:49:11;0.20;99.90
17565;DHT22;62994;52.126;5.596;2024-01-07T21:55:26;-0.80;99.90
17565;DHT22;62994;52.126;5.596;2024-01-07T21:58:20;0.10;99.90
17565;DHT22;62994;52.126;5.596;2024-01-07T22:01:11;0.10;99.90
17565;DHT22;62994;52.126;5.596;2024-01-07T22:04:22;1.00;99.90
17565;DHT22;62994;52.126;5.596;2024-01-07T22:07:03;0.10;99.90
17565;DHT22;62994;52.126;5.596;2024-01-07T22:09:34;0.20;99.90
17565;DHT22;62994;52.126;5.596;2024-01-07T22:12:12;0.20;99.90
17565;DHT22;62994;52.126;5.596;2024-01-07T22:15:02;0.20;99.90
17565;DHT22;62994;52.126;5.596;2024-01-07T22:17:49;0.20;99.90
17565;DHT22;62994;52.126;5.596;2024-01-07T22:20:41;-0.20;99.90
17565;DHT22;62994;52.126;5.596;2024-01-07T22:23:48;0.30;99.90
17565;DHT22;62994;52.126;5.596;2024-01-07T22:26:42;1.50;99.90